Time;durP1;ratioP1;P1;durP2;ratioP2;P2;SDS_P1;SDS_P2;PMS_P1;PMS_P2;Temp;Humidity;BMP_temperature;BMP_pressure;BME280_temperature;BME280_humidity;BME280_pressure;Samples;Min_cycle;Max_cycle;Signal;HPM_P1;HPM_P2
2022/07/30 00:00:52;;;;;;;3.40;2.40;;;;;;;22.48;52.46;94644.97;5001688;28;20260;-73
2022/07/30 00:03:18;;;;;;;3.33;2.00;;;;;;;22.45;52.77;94629.19;5011547;28;20723;-73
2022/07/30 00:05:45;;;;;;;3.83;2.17;;;;;;;22.45;52.76;94640.25;5011946;28;20232;-73
2022/07/30 00:08:12;;;;;;;2.05;1.85;;;;;;;22.41;52.67;94635.94;4998928;28;20204;-73
2022/07/30 00:10:40;;;;;;;3.08;2.13;;;;;;;22.36;52.88;94630.84;5002371;28;20202;-75
2022/07/30 00:13:07;;;;;;;3.38;2.22;;;;;;;22.37;52.83;94633.19;5005118;28;20209;-75
2022/07/30 00:15:34;;;;;;;3.50;2.30;;;;;;;22.33;53.07;94627.69;5002044;28;20268;-73
2022/07/30 00:18:02;;;;;;;4.38;2.13;;;;;;;22.30;53.01;94628.50;4998461;28;20641;-74
2022/07/30 00:20:29;;;;;;;4.38;2.45;;;;;;;22.27;53.17;94617.50;5001135;28;20230;-75
2022/07/30 00:22:56;;;;;;;2.13;1.83;;;;;;;22.27;53.26;94620.25;5005570;28;20229;-74
2022/07/30 00:25:23;;;;;;;3.95;2.55;;;;;;;22.26;53.21;94622.22;5002458;28;20231;-73
2022/07/30 00:27:50;;;;;;;2.33;2.05;;;;;;;22.18;53.38;94614.34;4997977;28;20212;-74
2022/07/30 00:30:16;;;;;;;3.45;2.92;;;;;;;22.17;53.72;94623.81;5011790;28;20286;-74
2022/07/30 00:32:43;;;;;;;3.72;2.72;;;;;;;22.12;53.89;94622.28;4998178;28;20201;-73
2022/07/30 00:35:11;;;;;;;3.67;2.80;;;;;;;22.06;54.08;94620.34;5000623;28;20233;-74
2022/07/30 00:37:38;;;;;;;2.55;2.13;;;;;;;22.12;53.91;94624.25;5009774;28;20201;-73
2022/07/30 00:40:07;;;;;;;4.18;2.95;;;;;;;22.13;53.92;94618.34;5011622;28;20311;-74
2022/07/30 00:42:38;;;;;;;4.82;2.90;;;;;;;22.12;53.83;94615.97;4998093;28;20228;-73
2022/07/30 00:45:07;;;;;;;3.95;1.80;;;;;;;22.15;54.11;94620.69;5011457;28;20209;-74
2022/07/30 00:47:34;;;;;;;3.20;2.10;;;;;;;22.09;53.96;94612.06;5011403;28;20263;-74
2022/07/30 00:50:03;;;;;;;2.28;1.55;;;;;;;22.16;53.88;94616.72;4998277;28;20201;-77
2022/07/30 00:52:32;;;;;;;2.58;2.00;;;;;;;22.12;54.05;94610.47;5003316;28;20276;-74
2022/07/30 00:54:59;;;;;;;7.60;2.03;;;;;;;22.05;54.25;94602.19;5004437;28;20283;-73
2022/07/30 00:57:26;;;;;;;3.80;1.88;;;;;;;22.04;54.41;94606.94;4998877;28;20817;-73
2022/07/30 00:59:53;;;;;;;1.83;1.50;;;;;;;22.07;54.24;94610.88;4998240;28;20311;-79
2022/07/30 01:02:21;;;;;;;4.22;3.10;;;;;;;22.00;54.54;94597.91;5002574;28;20212;-74
2022/07/30 01:04:48;;;;;;;3.38;2.83;;;;;;;21.96;54.84;94597.09;5004275;28;20303;-74
2022/07/30 01:07:15;;;;;;;3.88;2.40;;;;;;;21.90;55.08;94610.50;5000105;28;20263;-72
2022/07/30 01:09:43;;;;;;;3.08;2.40;;;;;;;21.91;55.05;94601.06;4997396;28;20790;-73
2022/07/30 01:12:12;;;;;;;3.70;2.22;;;;;;;21.88;55.27;94606.56;5000975;28;20201;-73
2022/07/30 01:14:39;;;;;;;2.20;2.00;;;;;;;21.79;55.52;94598.75;5007809;28;20727;-73
2022/07/30 01:17:07;;;;;;;2.92;2.63;;;;;;;21.76;55.60;94607.03;5000845;28;20264;-74
2022/07/30 01:19:51;;;;;;;2.97;2.30;;;;;;;21.79;55.63;94597.94;5004577;28;20225;-75
2022/07/30 01:22:23;;;;;;;3.45;2.13;;;;;;;21.79;55.72;94598.75;5004407;28;20224;-73
2022/07/30 01:25:08;;;;;;;4.50;2.13;;;;;;;21.77;55.65;94601.09;4997999;28;20645;-74
2022/07/30 01:27:41;;;;;;;3.10;2.33;;;;;;;21.69;55.99;94599.56;5008015;28;20198;-72
2022/07/30 01:30:10;;;;;;;3.80;1.95;;;;;;;21.67;55.98;94601.16;5001825;28;20602;-82
2022/07/30 01:32:42;;;;;;;2.92;2.20;;;;;;;21.66;56.23;94605.88;5012487;28;20209;-73
2022/07/30 01:35:10;;;;;;;3.08;2.17;;;;;;;21.59;56.42;94600.41;5014468;28;20220;-74
2022/07/30 01:37:38;;;;;;;2.42;2.05;;;;;;;21.57;56.53;94602.75;5014645;28;20649;-73
2022/07/30 01:40:07;;;;;;;4.10;2.63;;;;;;;21.57;56.41;94600.00;5014841;28;20314;-74
2022/07/30 01:42:38;;;;;;;3.30;2.63;;;;;;;21.59;56.46;94600.41;5001344;28;20664;-74
2022/07/30 01:45:07;;;;;;;1.52;1.42;;;;;;;21.63;56.08;94601.16;5014513;28;20701;-73
2022/07/30 01:47:37;;;;;;;2.97;1.98;;;;;;;21.64;56.19;94602.72;5014457;28;20201;-74
2022/07/30 01:50:06;;;;;;;3.78;2.58;;;;;;;21.63;56.28;94606.66;5014468;28;20291;-73
2022/07/30 01:52:36;;;;;;;3.22;2.45;;;;;;;21.64;56.19;94603.53;5006246;28;20208;-73
2022/07/30 01:55:04;;;;;;;3.15;2.05;;;;;;;21.56;56.40;94609.47;5007317;28;20730;-75
2022/07/30 01:57:35;;;;;;;3.80;2.47;;;;;;;21.44;56.81;94609.88;5003856;28;20208;-75
2022/07/30 02:00:06;;;;;;;4.57;2.83;;;;;;;21.41;56.78;94605.16;5001277;28;20279;-75
2022/07/30 02:02:35;;;;;;;3.67;2.92;;;;;;;21.41;57.31;94599.66;5003791;28;20201;-73
2022/07/30 02:05:02;;;;;;;3.95;2.90;;;;;;;21.38;57.56;94605.94;5011707;28;20647;-75
2022/07/30 02:07:36;;;;;;;3.35;2.58;;;;;;;21.21;58.68;94604.78;5014337;28;20209;-73
2022/07/30 02:10:07;;;;;;;4.50;3.13;;;;;;;21.16;58.21;94600.47;5000704;28;20618;-73
2022/07/30 02:12:39;;;;;;;6.57;3.38;;;;;;;21.08;58.55;94604.38;5000803;28;20194;-74
2022/07/30 02:15:14;;;;;;;5.95;4.15;;;;;;;21.00;59.34;94600.06;5006448;28;20197;-73
2022/07/30 02:17:44;;;;;;;6.57;3.20;;;;;;;20.85;60.04;94610.31;5009439;28;20240;-73
2022/07/30 02:20:13;;;;;;;3.20;2.85;;;;;;;20.61;61.41;94602.03;5013751;28;20237;-74
2022/07/30 02:22:43;;;;;;;3.60;2.47;;;;;;;20.59;61.38;94599.69;5013526;28;20579;-74
2022/07/30 02:25:15;;;;;;;3.17;2.40;;;;;;;20.50;61.47;94594.53;5003626;28;20201;-72
2022/07/30 02:27:45;;;;;;;4.88;2.63;;;;;;;20.40;61.98;94592.56;5007053;28;20556;-74
2022/07/30 02:30:15;;;;;;;3.40;2.70;;;;;;;20.35;62.25;94595.69;5005223;28;20255;-73
2022/07/30 02:32:44;;;;;;;4.47;2.45;;;;;;;20.24;62.45;94592.91;5000529;28;20201;-73
2022/07/30 02:35:15;;;;;;;6.57;2.25;;;;;;;20.27;61.96;94594.09;5000925;28;20205;-74
2022/07/30 02:37:45;;;;;;;5.57;2.33;;;;;;;20.27;62.76;94598.81;5000436;28;20198;-73
2022/07/30 02:40:15;;;;;;;2.55;2.17;;;;;;;20.29;62.27;94586.25;5013316;28;20229;-73
2022/07/30 02:42:45;;;;;;;5.60;2.35;;;;;;;20.39;61.61;94591.00;5001016;28;20204;-73
2022/07/30 02:45:17;;;;;;;3.17;1.80;;;;;;;20.52;61.03;94594.94;5016997;28;20647;-73
2022/07/30 02:47:46;;;;;;;3.22;2.45;;;;;;;20.62;60.79;94587.88;5013549;28;20747;-74
2022/07/30 02:50:14;;;;;;;4.85;2.53;;;;;;;20.60;60.78;94584.75;5010375;28;20214;-73
2022/07/30 02:52:42;;;;;;;3.42;2.22;;;;;;;20.49;61.44;94590.25;5003209;28;20205;-73
2022/07/30 02:55:12;;;;;;;3.45;2.30;;;;;;;20.54;61.01;94587.09;5009404;28;20297;-73
2022/07/30 02:57:42;;;;;;;3.38;2.42;;;;;;;20.51;61.26;94593.38;5003633;28;20204;-73
2022/07/30 03:00:11;;;;;;;5.68;2.70;;;;;;;20.43;61.36;94580.78;4999542;28;20217;-73
2022/07/30 03:02:40;;;;;;;3.55;2.33;;;;;;;20.45;61.93;94581.19;5001283;28;20565;-74
2022/07/30 03:05:08;;;;;;;6.22;2.83;;;;;;;20.40;62.23;94578.81;5006595;28;20324;-74
2022/07/30 03:07:36;;;;;;;5.55;3.17;;;;;;;20.40;62.17;94587.06;5004360;28;20312;-74
2022/07/30 03:10:05;;;;;;;2.63;2.22;;;;;;;20.34;61.96;94583.13;5012806;28;20209;-73
2022/07/30 03:12:34;;;;;;;3.83;2.15;;;;;;;20.27;62.18;94576.78;4999890;28;20202;-74
2022/07/30 03:15:01;;;;;;;4.75;2.00;;;;;;;20.33;61.76;94578.00;5006898;28;20240;-74
2022/07/30 03:17:31;;;;;;;3.28;2.30;;;;;;;20.33;61.83;94573.28;5006565;28;20300;-74
2022/07/30 03:20:02;;;;;;;3.55;2.70;;;;;;;20.36;61.85;94580.78;5000336;28;20252;-73
2022/07/30 03:22:31;;;;;;;5.10;2.58;;;;;;;20.34;62.24;94574.84;5010921;28;20193;-72
2022/07/30 03:24:59;;;;;;;3.72;2.38;;;;;;;20.22;62.57;94575.22;5001205;28;20201;-72
2022/07/30 03:27:27;;;;;;;3.20;2.30;;;;;;;20.31;62.69;94583.09;4999635;28;20209;-72
2022/07/30 03:29:55;;;;;;;4.43;2.60;;;;;;;20.46;62.42;94580.00;5003782;28;20668;-73
2022/07/30 03:32:23;;;;;;;3.28;2.35;;;;;;;20.51;61.94;94582.34;5005931;28;20542;-73
2022/07/30 03:34:51;;;;;;;4.05;2.80;;;;;;;20.72;61.00;94580.81;5001876;28;20287;-73
2022/07/30 03:37:20;;;;;;;2.78;2.40;;;;;;;20.75;60.86;94580.03;4998894;28;20213;-73
2022/07/30 03:39:47;;;;;;;2.70;2.00;;;;;;;20.83;60.84;94581.59;5012512;28;20720;-74
2022/07/30 03:42:15;;;;;;;5.00;3.03;;;;;;;20.75;61.02;94585.53;5012281;28;20212;-74
2022/07/30 03:44:45;;;;;;;3.38;2.40;;;;;;;20.72;61.23;94589.06;5004097;28;20255;-73
2022/07/30 03:47:14;;;;;;;3.00;2.25;;;;;;;20.71;61.29;94591.03;4999362;28;20197;-75
2022/07/30 03:49:41;;;;;;;4.30;2.42;;;;;;;21.09;60.44;94575.66;5000674;28;20256;-74
2022/07/30 03:52:09;;;;;;;4.63;2.70;;;;;;;21.48;59.11;94583.88;5005703;28;20245;-74
2022/07/30 03:54:37;;;;;;;3.25;2.30;;;;;;;21.94;57.76;94583.72;5004597;28;20268;-74
2022/07/30 03:57:05;;;;;;;8.25;2.60;;;;;;;22.38;56.71;94574.03;4999337;28;20263;-73
2022/07/30 03:59:33;;;;;;;4.32;3.30;;;;;;;22.86;55.53;94587.13;4999090;28;20218;-73
2022/07/30 04:02:01;;;;;;;2.95;2.15;;;;;;;23.31;54.04;94580.41;4998818;28;20707;-73
2022/07/30 04:04:29;;;;;;;4.32;2.42;;;;;;;24.29;52.01;94581.69;4998523;28;20780;-73
2022/07/30 04:06:56;;;;;;;6.40;2.83;;;;;;;24.38;51.23;94585.50;5005058;28;20209;-73
2022/07/30 04:09:23;;;;;;;4.75;2.40;;;;;;;24.83;50.08;94576.13;5005285;28;20260;-73
2022/07/30 04:11:51;;;;;;;4.00;3.22;;;;;;;25.39;48.96;94583.50;4992455;28;20657;-72
2022/07/30 04:14:18;;;;;;;3.55;2.97;;;;;;;25.82;48.06;94579.97;5005624;28;20266;-73
2022/07/30 04:16:50;;;;;;;3.53;2.67;;;;;;;26.66;46.25;94587.69;5000091;28;20208;-73
2022/07/30 04:19:22;;;;;;;3.88;3.15;;;;;;;27.81;43.56;94576.09;4998717;28;20198;-73
2022/07/30 04:21:52;;;;;;;3.40;3.10;;;;;;;27.90;42.97;94573.44;5011760;28;20275;-74
2022/07/30 04:24:20;;;;;;;3.58;3.15;;;;;;;28.04;42.45;94571.47;4998779;28;20332;-73
2022/07/30 04:26:48;;;;;;;4.32;3.03;;;;;;;28.83;41.10;94577.13;5001582;28;20190;-74
2022/07/30 04:29:18;;;;;;;4.68;3.03;;;;;;;30.08;38.58;94573.69;5005248;28;20208;-72
2022/07/30 04:31:45;;;;;;;5.10;3.50;;;;;;;30.61;37.82;94570.94;5002395;28;20216;-73
2022/07/30 04:34:14;;;;;;;6.15;4.10;;;;;;;30.08;39.15;94573.69;5011133;28;20228;-73
2022/07/30 04:36:42;;;;;;;6.05;4.30;;;;;;;30.40;38.53;94578.09;4999913;28;20201;-74
2022/07/30 04:39:09;;;;;;;3.53;3.05;;;;;;;31.25;36.40;94579.59;5009873;28;20563;-72
2022/07/30 04:41:36;;;;;;;5.25;3.03;;;;;;;30.87;37.35;94583.50;5011368;28;20323;-74
2022/07/30 04:44:03;;;;;;;3.65;3.28;;;;;;;31.80;36.62;94586.09;5021097;28;20212;-74
2022/07/30 04:46:32;;;;;;;3.17;2.75;;;;;;;32.79;35.36;94576.03;5011086;28;20255;-74
2022/07/30 04:48:59;;;;;;;5.32;3.00;;;;;;;32.32;35.29;94593.41;4997814;28;20734;-74
2022/07/30 04:51:29;;;;;;;4.57;2.92;;;;;;;32.10;34.87;94587.19;4999157;28;20205;-74
2022/07/30 04:53:58;;;;;;;4.78;3.00;;;;;;;30.61;37.62;94591.31;5011131;28;20283;-73
2022/07/30 04:56:25;;;;;;;4.82;3.55;;;;;;;30.15;38.79;94587.41;5011165;28;20291;-74
2022/07/30 04:58:53;;;;;;;5.93;3.33;;;;;;;32.01;35.54;94584.38;4997993;28;20267;-72
2022/07/30 05:01:23;;;;;;;5.32;3.50;;;;;;;33.32;33.97;94574.72;5011014;28;20316;-73
2022/07/30 05:03:53;;;;;;;5.70;3.15;;;;;;;33.87;33.24;94575.16;5010917;28;20233;-74
2022/07/30 05:06:20;;;;;;;6.15;3.50;;;;;;;34.27;31.91;94566.25;5010211;28;20189;-74
2022/07/30 05:08:47;;;;;;;4.57;3.60;;;;;;;34.39;31.89;94562.38;5009963;28;20251;-73
2022/07/30 05:11:14;;;;;;;4.80;3.08;;;;;;;35.18;31.43;94553.94;5010424;28;20538;-74
2022/07/30 05:13:42;;;;;;;6.40;3.53;;;;;;;35.49;30.08;94569.53;5003057;28;20201;-74
2022/07/30 05:16:10;;;;;;;5.22;3.10;;;;;;;34.33;32.00;94561.47;5006411;28;20322;-74
2022/07/30 05:18:37;;;;;;;4.30;3.80;;;;;;;34.97;31.29;94572.06;5011044;28;20197;-74
2022/07/30 05:21:05;;;;;;;3.97;3.40;;;;;;;35.95;30.12;94573.22;4997495;28;20280;-73
2022/07/30 05:23:32;;;;;;;4.75;3.15;;;;;;;35.59;29.92;94565.31;5010009;28;20676;-74
2022/07/30 05:25:59;;;;;;;3.00;2.80;;;;;;;36.47;29.57;94570.50;5008202;28;20201;-73
2022/07/30 05:28:26;;;;;;;6.00;3.70;;;;;;;35.61;29.96;94568.41;5001145;28;20205;-73
2022/07/30 05:30:53;;;;;;;6.47;3.30;;;;;;;37.01;29.12;94570.75;4997957;28;20255;-73
2022/07/30 05:33:21;;;;;;;4.22;3.45;;;;;;;34.87;31.30;94579.84;5010012;28;20261;-74
2022/07/30 05:35:48;;;;;;;5.38;3.58;;;;;;;34.98;32.35;94568.00;5007210;28;20256;-73
2022/07/30 05:38:17;;;;;;;4.93;3.40;;;;;;;34.65;32.29;94573.03;5001990;28;20197;-73
2022/07/30 05:40:45;;;;;;;5.60;2.92;;;;;;;33.28;33.62;94576.91;5010240;28;20621;-73
2022/07/30 05:43:12;;;;;;;4.43;2.80;;;;;;;33.74;31.98;94581.00;5018447;28;20203;-73
2022/07/30 05:45:39;;;;;;;6.63;3.20;;;;;;;33.71;32.23;94581.19;5006341;28;20209;-73
2022/07/30 05:48:07;;;;;;;5.22;3.08;;;;;;;35.52;30.56;94577.00;5003260;28;20201;-73
2022/07/30 05:50:33;;;;;;;5.57;3.33;;;;;;;34.72;30.69;94578.25;5004898;28;20289;-73
2022/07/30 05:53:00;;;;;;;4.70;2.90;;;;;;;33.36;32.79;94575.31;5003644;28;20213;-74
2022/07/30 05:55:29;;;;;;;4.20;3.40;;;;;;;31.67;35.89;94580.63;5010636;28;20260;-73
2022/07/30 05:57:55;;;;;;;3.60;3.10;;;;;;;32.34;34.56;94596.53;5010547;28;20744;-74
2022/07/30 06:00:22;;;;;;;3.63;3.25;;;;;;;32.05;35.11;94585.00;4997302;28;20246;-73
2022/07/30 06:02:49;;;;;;;7.10;3.15;;;;;;;30.77;37.00;94584.69;4997726;28;20240;-73
2022/07/30 06:05:16;;;;;;;4.00;2.85;;;;;;;31.43;36.69;94586.00;4996944;28;20233;-72
2022/07/30 06:07:42;;;;;;;3.55;3.22;;;;;;;31.72;36.63;94588.41;4996738;28;20253;-72
2022/07/30 06:10:09;;;;;;;4.97;3.20;;;;;;;32.87;34.97;94576.47;5003706;28;20291;-74
2022/07/30 06:12:38;;;;;;;6.97;3.75;;;;;;;33.60;33.41;94586.56;5004210;28;20267;-73
2022/07/30 06:15:06;;;;;;;4.95;3.25;;;;;;;33.70;33.03;94591.63;5010234;28;20197;-73
2022/07/30 06:17:32;;;;;;;7.93;6.13;;;;;;;33.32;34.28;94583.16;4997423;28;20210;-73
2022/07/30 06:20:00;;;;;;;5.00;3.00;;;;;;;33.17;34.47;94589.44;5006368;28;20263;-73
2022/07/30 06:22:26;;;;;;;4.40;3.15;;;;;;;33.30;34.38;94596.88;5007143;28;20225;-73
2022/07/30 06:24:53;;;;;;;5.50;4.00;;;;;;;33.41;34.06;94585.91;4999804;28;20260;-73
2022/07/30 06:27:20;;;;;;;5.38;3.67;;;;;;;33.85;33.63;94589.69;5010286;28;20611;-72
2022/07/30 06:29:48;;;;;;;4.43;3.60;;;;;;;34.14;32.93;94585.41;5005817;28;20268;-73
2022/07/30 06:32:16;;;;;;;4.00;3.55;;;;;;;34.63;32.08;94575.56;5007473;28;20197;-72
2022/07/30 06:34:43;;;;;;;5.40;3.63;;;;;;;34.71;31.61;94582.38;5005845;28;20205;-72
2022/07/30 06:37:09;;;;;;;3.55;2.80;;;;;;;33.67;32.60;94586.19;5013287;28;20718;-74
2022/07/30 06:39:36;;;;;;;5.55;3.63;;;;;;;33.79;32.92;94582.38;5007414;28;20198;-73
2022/07/30 06:42:03;;;;;;;3.33;2.97;;;;;;;33.52;32.50;94586.13;4999346;28;20642;-73
2022/07/30 06:44:30;;;;;;;5.60;4.50;;;;;;;33.36;33.46;94575.31;5006123;28;20641;-74
2022/07/30 06:46:58;;;;;;;3.85;3.47;;;;;;;33.30;33.33;94572.38;4996887;28;20198;-74
2022/07/30 06:49:25;;;;;;;4.90;3.88;;;;;;;34.33;32.04;94569.13;5013164;28;20201;-72
2022/07/30 06:51:52;;;;;;;4.18;3.40;;;;;;;34.91;31.64;94568.38;5013179;28;20212;-72
2022/07/30 06:54:19;;;;;;;6.45;4.13;;;;;;;33.65;32.81;94572.63;5009562;28;20202;-76
2022/07/30 06:56:46;;;;;;;6.57;3.50;;;;;;;33.93;32.56;94561.19;5006408;28;20201;-74
2022/07/30 06:59:12;;;;;;;6.47;4.10;;;;;;;34.55;31.72;94570.34;5002104;28;20212;-75
2022/07/30 07:01:39;;;;;;;5.15;4.30;;;;;;;33.19;33.57;94564.47;5000468;28;20233;-74
2022/07/30 07:04:07;;;;;;;6.38;4.40;;;;;;;34.12;32.93;94554.94;5012860;28;20323;-74
2022/07/30 07:06:34;;;;;;;5.53;4.15;;;;;;;34.39;32.60;94548.31;5011880;28;20287;-74
2022/07/30 07:09:01;;;;;;;5.97;4.28;;;;;;;33.14;33.42;94556.69;5012357;28;20267;-74
2022/07/30 07:11:28;;;;;;;5.63;3.80;;;;;;;31.87;35.47;94556.97;5012775;28;20267;-74
2022/07/30 07:13:55;;;;;;;5.07;3.75;;;;;;;32.02;36.11;94557.91;5012085;28;20271;-74
2022/07/30 07:16:24;;;;;;;4.68;4.00;;;;;;;31.42;36.37;94550.88;5012414;28;20298;-71
2022/07/30 07:18:51;;;;;;;4.10;3.70;;;;;;;31.63;37.17;94560.38;5013016;28;20211;-73
2022/07/30 07:21:20;;;;;;;5.28;3.63;;;;;;;32.48;35.09;94544.59;5007149;28;20289;-71
2022/07/30 07:23:48;;;;;;;5.25;4.32;;;;;;;32.96;34.46;94545.53;5004365;28;20213;-71
2022/07/30 07:26:16;;;;;;;4.15;3.53;;;;;;;32.69;35.16;94542.81;5007180;28;20275;-71
2022/07/30 07:28:43;;;;;;;3.72;3.38;;;;;;;33.30;34.24;94540.72;5005356;28;20267;-73
2022/07/30 07:31:11;;;;;;;4.05;3.60;;;;;;;32.58;35.27;94548.16;4998766;28;20212;-74
2022/07/30 07:33:39;;;;;;;4.22;3.80;;;;;;;32.71;35.01;94546.69;4999444;28;20292;-73
2022/07/30 07:36:06;;;;;;;5.53;3.53;;;;;;;33.32;34.41;94543.81;5012317;28;20208;-73
2022/07/30 07:38:35;;;;;;;4.22;3.47;;;;;;;33.60;33.58;94536.75;5011793;28;20201;-74
2022/07/30 07:41:02;;;;;;;6.78;3.70;;;;;;;33.02;34.12;94537.25;5012167;28;20205;-74
2022/07/30 07:43:28;;;;;;;3.70;3.35;;;;;;;32.40;35.42;94532.94;5020570;28;20239;-73
2022/07/30 07:45:55;;;;;;;4.25;3.30;;;;;;;33.33;34.39;94539.75;5012032;28;20201;-73
2022/07/30 07:48:22;;;;;;;5.22;3.50;;;;;;;32.45;35.57;94542.75;4998758;28;20653;-75
2022/07/30 07:50:49;;;;;;;7.95;3.80;;;;;;;32.93;34.75;94535.28;5004687;28;20597;-74
2022/07/30 07:53:16;;;;;;;5.97;3.65;;;;;;;33.97;34.30;94530.88;5005969;28;20251;-73
2022/07/30 07:55:44;;;;;;;5.43;3.58;;;;;;;34.52;31.99;94531.13;5012091;28;20205;-73
2022/07/30 07:58:12;;;;;;;4.57;3.60;;;;;;;34.73;33.26;94540.41;4997817;28;20672;-73
2022/07/30 08:00:39;;;;;;;3.95;3.55;;;;;;;34.36;32.39;94529.56;5011711;28;20945;-73
2022/07/30 08:03:06;;;;;;;5.68;3.90;;;;;;;35.03;31.24;94525.03;5011462;28;20228;-75
2022/07/30 08:05:33;;;;;;;5.57;3.85;;;;;;;34.33;31.63;94530.53;5003499;28;20704;-76
2022/07/30 08:08:00;;;;;;;3.60;3.17;;;;;;;32.52;34.88;94536.03;5006742;28;20536;-74
2022/07/30 08:10:27;;;;;;;4.57;3.67;;;;;;;33.19;34.20;94536.38;5015457;28;20251;-74
2022/07/30 08:12:55;;;;;;;4.22;3.83;;;;;;;33.52;34.14;94532.75;5011349;28;20453;-73
2022/07/30 08:15:23;;;;;;;4.15;3.47;;;;;;;32.74;33.93;94536.59;5002584;28;20206;-72
2022/07/30 08:17:49;;;;;;;4.50;4.03;;;;;;;32.31;34.61;94537.78;5005468;28;20636;-73
2022/07/30 08:20:16;;;;;;;5.18;3.53;;;;;;;32.67;34.39;94531.28;5001026;28;20197;-74
2022/07/30 08:22:43;;;;;;;4.90;4.00;;;;;;;33.61;33.57;94535.50;4998105;28;20244;-74
2022/07/30 08:25:10;;;;;;;4.50;3.75;;;;;;;33.86;32.34;94520.19;5002634;28;20208;-73
2022/07/30 08:27:37;;;;;;;4.88;3.95;;;;;;;33.33;33.50;94523.69;5007740;28;20211;-74
2022/07/30 08:30:07;;;;;;;5.38;3.75;;;;;;;32.42;33.55;94524.81;5011788;28;20212;-74
2022/07/30 08:32:34;;;;;;;4.30;3.63;;;;;;;32.36;34.81;94526.72;4998159;28;20229;-74
2022/07/30 08:35:01;;;;;;;5.43;3.55;;;;;;;32.07;34.50;94515.22;5001173;28;20216;-75
2022/07/30 08:37:28;;;;;;;4.93;3.85;;;;;;;32.25;34.37;94526.44;5008930;28;20201;-74
2022/07/30 08:39:55;;;;;;;4.65;4.10;;;;;;;32.15;33.87;94522.06;5010697;28;20295;-74
2022/07/30 08:42:22;;;;;;;4.20;3.80;;;;;;;32.22;34.02;94510.56;5007278;28;20229;-74
2022/07/30 08:44:52;;;;;;;6.20;4.00;;;;;;;32.53;33.38;94517.94;5019391;28;20668;-74
2022/07/30 08:47:27;;;;;;;4.90;4.05;;;;;;;33.15;33.02;94506.91;5011242;28;20235;-73
2022/07/30 08:50:00;;;;;;;5.57;4.15;;;;;;;32.26;34.05;94516.75;4998249;28;20197;-73
2022/07/30 08:52:27;;;;;;;5.25;4.03;;;;;;;32.44;34.13;94513.91;4998833;28;20201;-73
2022/07/30 08:54:54;;;;;;;4.65;3.90;;;;;;;32.58;34.05;94500.47;5009721;28;20623;-73
2022/07/30 08:57:21;;;;;;;4.60;4.05;;;;;;;33.25;33.47;94502.03;4998558;28;20205;-73
2022/07/30 08:59:50;;;;;;;6.00;4.05;;;;;;;32.15;34.03;94508.03;4997136;28;20879;-75
2022/07/30 09:02:17;;;;;;;4.32;3.92;;;;;;;32.11;34.89;94501.84;5003547;28;20261;-74
2022/07/30 09:04:45;;;;;;;4.35;3.95;;;;;;;32.28;34.01;94503.06;5004335;28;20651;-74
2022/07/30 09:07:12;;;;;;;6.50;3.92;;;;;;;31.91;35.32;94495.94;4999354;28;20205;-74
2022/07/30 09:09:39;;;;;;;8.27;3.80;;;;;;;31.98;34.86;94490.78;5004689;28;20242;-74
2022/07/30 09:12:33;;;;;;;4.93;4.13;;;;;;;32.02;35.41;94490.63;5010534;28;20259;-75
2022/07/30 09:15:05;;;;;;;3.72;3.40;;;;;;;32.24;34.83;94485.63;4997305;28;20213;-75
2022/07/30 09:17:46;;;;;;;5.25;3.80;;;;;;;32.85;34.01;94477.91;4997552;28;20257;-74
2022/07/30 09:20:14;;;;;;;4.78;3.97;;;;;;;32.93;33.37;94473.53;4999654;28;20189;-73
2022/07/30 09:22:43;;;;;;;4.47;3.60;;;;;;;32.87;33.39;94464.19;5008451;28;20335;-74
2022/07/30 09:25:09;;;;;;;4.97;3.90;;;;;;;33.24;33.47;94467.56;4999261;28;20201;-73
2022/07/30 09:27:45;;;;;;;4.40;3.50;;;;;;;32.54;33.47;94463.38;4997558;28;20206;-74
2022/07/30 09:30:12;;;;;;;4.57;4.10;;;;;;;33.14;32.88;94461.22;5010652;28;20273;-74
2022/07/30 09:32:48;;;;;;;4.20;3.80;;;;;;;33.44;32.07;94459.31;4997661;28;20233;-74
2022/07/30 09:35:17;;;;;;;4.18;3.78;;;;;;;33.25;33.31;94454.28;5011051;28;20287;-74
2022/07/30 09:37:45;;;;;;;5.13;3.55;;;;;;;32.68;34.07;94460.66;4998837;28;20284;-74
2022/07/30 09:40:15;;;;;;;6.30;5.00;;;;;;;32.72;33.35;94457.72;5010628;28;20201;-74
2022/07/30 09:42:42;;;;;;;4.85;4.10;;;;;;;32.55;32.89;94462.91;5009839;28;20274;-77
2022/07/30 09:45:11;;;;;;;5.88;3.95;;;;;;;32.57;33.22;94456.81;5015986;28;20208;-76
2022/07/30 09:47:40;;;;;;;4.78;4.03;;;;;;;33.12;32.80;94452.47;5002936;28;20212;-72
2022/07/30 09:50:08;;;;;;;5.05;4.05;;;;;;;32.82;33.03;94451.56;5003847;28;20696;-74
2022/07/30 09:52:38;;;;;;;5.25;4.47;;;;;;;33.15;32.66;94443.09;4999735;28;20293;-73
2022/07/30 09:55:06;;;;;;;4.80;4.18;;;;;;;32.17;33.64;94452.28;5001033;28;20743;-75
2022/07/30 09:57:33;;;;;;;5.25;3.92;;;;;;;31.78;35.15;94448.47;5014716;28;20209;-73
2022/07/30 10:00:16;;;;;;;4.75;4.15;;;;;;;32.71;33.96;94433.69;5010502;28;20201;-73
2022/07/30 10:02:43;;;;;;;4.88;4.05;;;;;;;33.35;32.62;94442.50;5007099;28;20213;-73
2022/07/30 10:05:12;;;;;;;4.20;3.80;;;;;;;33.78;32.26;94423.44;5000643;28;20291;-73
2022/07/30 10:07:48;;;;;;;4.20;3.78;;;;;;;33.12;32.77;94434.84;5013865;28;20256;-73
2022/07/30 10:10:16;;;;;;;5.13;4.15;;;;;;;32.71;34.00;94425.25;5016272;28;20275;-73
2022/07/30 10:12:45;;;;;;;5.13;4.35;;;;;;;33.23;32.99;94425.88;5012263;28;20701;-73
2022/07/30 10:15:15;;;;;;;5.95;4.53;;;;;;;33.43;32.12;94420.47;5002373;28;20201;-74
2022/07/30 10:17:42;;;;;;;4.80;3.85;;;;;;;33.12;32.37;94423.63;5000875;28;20205;-74
2022/07/30 10:20:10;;;;;;;7.40;3.90;;;;;;;33.50;31.92;94417.25;5004944;28;20240;-75
2022/07/30 10:22:38;;;;;;;6.43;4.65;;;;;;;33.89;32.22;94418.03;5010278;28;20282;-75
2022/07/30 10:25:08;;;;;;;4.18;3.78;;;;;;;34.06;32.15;94412.66;5004306;28;20206;-74
2022/07/30 10:27:35;;;;;;;4.45;3.53;;;;;;;34.01;33.19;94408.53;5006995;28;20615;-74
2022/07/30 10:30:02;;;;;;;5.55;4.78;;;;;;;34.04;32.24;94395.50;5004633;28;20205;-74
2022/07/30 10:32:29;;;;;;;5.13;4.45;;;;;;;34.16;31.51;94398.03;5000097;28;20283;-74
2022/07/30 10:34:56;;;;;;;4.82;4.43;;;;;;;34.30;31.33;94399.31;5013969;28;20259;-74
2022/07/30 10:37:25;;;;;;;5.22;4.72;;;;;;;34.24;30.73;94389.97;5013188;28;20201;-73
2022/07/30 10:39:56;;;;;;;5.35;4.85;;;;;;;33.77;31.69;94388.91;5013800;28;20564;-74
2022/07/30 10:42:55;;;;;;;6.45;5.13;;;;;;;34.01;31.66;94390.88;5013207;28;20650;-74
2022/07/30 10:45:30;;;;;;;6.07;5.47;;;;;;;34.48;31.30;94385.00;5012412;28;20604;-74
2022/07/30 10:47:57;;;;;;;6.55;5.45;;;;;;;34.42;31.08;94386.97;5013062;28;20765;-74
2022/07/30 10:50:25;;;;;;;7.68;5.32;;;;;;;34.42;31.17;94372.91;5012867;28;20263;-74
2022/07/30 10:52:54;;;;;;;6.68;5.55;;;;;;;34.49;31.03;94369.66;5013215;28;20240;-74
2022/07/30 10:55:23;;;;;;;5.97;5.03;;;;;;;34.46;31.19;94376.25;5000247;28;20205;-75
2022/07/30 10:58:05;;;;;;;5.90;4.85;;;;;;;33.59;31.83;94383.47;5001553;28;20205;-75
2022/07/30 11:00:34;;;;;;;5.55;4.75;;;;;;;33.22;32.63;94376.59;5000813;28;20204;-74
2022/07/30 11:03:19;;;;;;;6.82;4.80;;;;;;;33.10;32.68;94382.00;5012046;28;20761;-73
2022/07/30 11:05:48;;;;;;;7.65;4.90;;;;;;;33.19;32.92;94370.69;5002036;28;20714;-73
2022/07/30 11:08:33;;;;;;;5.47;4.97;;;;;;;33.31;32.45;94362.50;5000336;28;20236;-74
2022/07/30 11:11:00;;;;;;;4.97;4.47;;;;;;;33.73;31.71;94357.41;5016249;28;20355;-73
2022/07/30 11:13:51;;;;;;;6.93;4.55;;;;;;;32.99;33.01;94359.31;5000010;28;20229;-74
2022/07/30 11:16:19;;;;;;;5.28;4.78;;;;;;;32.94;33.25;94350.78;5012490;28;20735;-74
2022/07/30 11:19:07;;;;;;;5.45;4.88;;;;;;;32.99;32.76;94353.69;5012011;28;20208;-74
2022/07/30 11:21:35;;;;;;;4.97;4.38;;;;;;;33.17;32.50;94349.97;4999841;28;20237;-75
2022/07/30 11:24:03;;;;;;;6.00;5.10;;;;;;;33.77;32.48;94349.56;5012811;28;20315;-74
2022/07/30 11:26:50;;;;;;;4.75;4.28;;;;;;;34.50;31.31;94340.25;5012948;28;20201;-74
2022/07/30 11:29:41;;;;;;;5.53;4.95;;;;;;;34.54;31.95;94338.03;5008688;28;20616;-74
2022/07/30 11:32:27;;;;;;;5.70;5.10;;;;;;;34.14;31.87;94332.28;5006705;28;20221;-73
2022/07/30 11:35:16;;;;;;;5.45;4.70;;;;;;;33.04;32.11;94339.00;5002992;28;20202;-74
2022/07/30 11:38:05;;;;;;;7.22;5.10;;;;;;;33.74;32.28;94328.06;5011763;28;20202;-73
2022/07/30 11:40:35;;;;;;;6.25;4.75;;;;;;;34.05;31.75;94329.56;5012499;28;20194;-73
2022/07/30 11:43:23;;;;;;;5.78;5.22;;;;;;;33.69;32.17;94325.91;5015319;28;20290;-73